createdAt,value
2019-05-15T00:00:23.466Z,1.17
2019-05-15T00:02:48.830Z,1.30
2019-05-15T00:05:14.386Z,1.17
2019-05-15T00:07:39.777Z,0.97
2019-05-15T00:10:05.511Z,1.30
2019-05-15T00:12:30.962Z,1.37
2019-05-15T00:14:58.214Z,1.10
2019-05-15T00:17:23.598Z,1.20
2019-05-15T00:19:48.985Z,1.40
2019-05-15T00:22:15.402Z,1.00
2019-05-15T00:24:40.790Z,1.20
2019-05-15T00:27:08.038Z,1.40
2019-05-15T00:29:33.118Z,1.10
2019-05-15T00:31:58.993Z,1.10
2019-05-15T00:34:24.450Z,1.27
2019-05-15T00:36:49.799Z,1.10
2019-05-15T00:39:15.159Z,1.10
2019-05-15T00:41:50.315Z,1.10
2019-05-15T00:44:09.197Z,1.27
2019-05-15T00:46:34.435Z,1.33
2019-05-15T00:48:59.779Z,1.20
2019-05-15T00:51:25.519Z,1.27
2019-05-15T00:53:50.862Z,1.23
2019-05-15T00:56:16.213Z,1.40
2019-05-15T00:58:41.566Z,1.10
2019-05-15T01:01:08.345Z,1.00
2019-05-15T01:03:33.774Z,1.37
2019-05-15T01:05:59.131Z,1.10
2019-05-15T01:08:24.467Z,1.10
2019-05-15T01:10:49.829Z,1.23
2019-05-15T01:13:15.290Z,1.37
2019-05-15T01:15:40.650Z,1.17
2019-05-15T01:18:05.990Z,1.17
2019-05-15T01:20:31.526Z,1.13
2019-05-15T01:22:59.037Z,1.30
2019-05-15T01:25:24.053Z,1.20
2019-05-15T01:27:49.422Z,1.20
2019-05-15T01:30:14.985Z,1.37
2019-05-15T01:32:40.343Z,1.07
2019-05-15T01:35:05.719Z,1.27
2019-05-15T01:37:32.050Z,1.30
2019-05-15T01:39:58.146Z,1.40
2019-05-15T01:42:23.554Z,1.20
2019-05-15T01:44:48.986Z,1.57
2019-05-15T01:47:14.382Z,1.40
2019-05-15T01:49:39.735Z,1.30
2019-05-15T01:52:05.090Z,1.20
2019-05-15T01:54:30.851Z,1.40
2019-05-15T01:56:58.564Z,1.13
2019-05-15T01:59:23.207Z,1.40
2019-05-15T02:01:48.765Z,1.27
2019-05-15T02:04:14.147Z,1.30
2019-05-15T02:06:39.491Z,1.60
2019-05-15T02:09:08.288Z,1.50
2019-05-15T02:11:34.831Z,1.30
2019-05-15T02:14:00.170Z,1.40
2019-05-15T02:16:25.546Z,1.53
2019-05-15T02:18:50.895Z,1.60
2019-05-15T02:21:18.264Z,1.40
2019-05-15T02:23:43.214Z,1.30
2019-05-15T02:26:08.636Z,1.40
2019-05-15T02:28:33.971Z,1.40
2019-05-15T02:30:59.354Z,1.37
2019-05-15T02:33:24.700Z,1.53
2019-05-15T02:35:50.514Z,1.20
2019-05-15T02:38:15.976Z,1.20
2019-05-15T02:40:41.332Z,1.30
2019-05-15T02:43:09.609Z,1.20
2019-05-15T02:45:36.669Z,1.20
2019-05-15T02:48:00.652Z,1.30
2019-05-15T02:50:28.897Z,1.50
2019-05-15T02:52:53.062Z,1.50
2019-05-15T02:55:19.674Z,1.33
2019-05-15T02:57:45.259Z,1.30
2019-05-15T03:00:11.462Z,1.40
2019-05-15T03:02:36.862Z,1.40
2019-05-15T03:05:02.242Z,1.20
2019-05-15T03:07:29.569Z,1.40
2019-05-15T03:09:54.591Z,1.43
2019-05-15T03:12:19.974Z,1.20
2019-05-15T03:14:45.310Z,1.50
2019-05-15T03:17:10.653Z,1.43
2019-05-15T03:19:39.012Z,1.40
2019-05-15T03:22:03.017Z,1.37
2019-05-15T03:24:29.032Z,1.47
2019-05-15T03:26:59.034Z,1.70
2019-05-15T03:29:23.025Z,1.57
2019-05-15T03:32:05.292Z,1.50
2019-05-15T03:34:23.262Z,1.77
2019-05-15T03:36:44.808Z,1.50
2019-05-15T03:39:09.783Z,1.83
2019-05-15T03:41:35.166Z,1.80
2019-05-15T03:44:00.513Z,1.83
2019-05-15T03:46:28.918Z,1.80
2019-05-15T03:48:52.839Z,1.90
2019-05-15T03:51:19.802Z,1.80
2019-05-15T03:53:45.184Z,1.70
2019-05-15T03:56:10.737Z,1.67
2019-05-15T03:58:39.712Z,2.10
2019-05-15T04:01:04.046Z,1.90
2019-05-15T04:03:30.262Z,1.60
2019-05-15T04:05:55.758Z,1.80
2019-05-15T04:08:21.124Z,1.80
2019-05-15T04:10:48.743Z,1.80
2019-05-15T04:13:13.466Z,1.80
2019-05-15T04:15:40.200Z,2.03
2019-05-15T04:18:08.934Z,1.93
2019-05-15T04:20:32.602Z,2.13
2019-05-15T04:23:00.482Z,1.80
2019-05-15T04:25:25.655Z,1.90
2019-05-15T04:27:51.712Z,2.33
2019-05-15T04:30:18.956Z,1.90
2019-05-15T04:32:44.268Z,1.80
2019-05-15T04:35:10.009Z,1.80
2019-05-15T04:37:35.486Z,1.80
2019-05-15T04:40:00.871Z,2.10
2019-05-15T04:42:29.650Z,2.23
2019-05-15T04:44:53.183Z,2.00
2019-05-15T04:47:19.252Z,2.10
2019-05-15T04:49:44.804Z,1.83
2019-05-15T04:52:11.186Z,1.70
2019-05-15T04:54:39.902Z,1.77
2019-05-15T04:57:03.535Z,1.80
2019-05-15T04:59:29.961Z,1.57
2019-05-15T05:02:12.944Z,1.63
2019-05-15T05:04:22.510Z,1.47
2019-05-15T05:06:49.501Z,1.53
2019-05-15T05:09:14.997Z,1.53
2019-05-15T05:11:40.619Z,1.70
2019-05-15T05:14:08.369Z,1.73
2019-05-15T05:16:32.934Z,1.73
2019-05-15T05:18:59.416Z,1.50
2019-05-15T05:21:24.845Z,1.67
2019-05-15T05:23:50.226Z,1.50
2019-05-15T05:26:15.566Z,1.67
2019-05-15T05:28:40.967Z,1.30
2019-05-15T05:31:08.438Z,1.30
2019-05-15T05:33:33.382Z,1.80
2019-05-15T05:35:58.729Z,1.80
2019-05-15T05:38:24.077Z,1.40
2019-05-15T05:40:50.145Z,1.40
2019-05-15T05:43:15.631Z,1.60
2019-05-15T05:45:40.999Z,1.30
2019-05-15T05:48:08.698Z,1.50
2019-05-15T05:50:38.628Z,1.50
2019-05-15T05:53:04.441Z,1.30
2019-05-15T05:55:29.791Z,1.20
2019-05-15T05:57:55.201Z,1.40
2019-05-15T06:00:24.311Z,1.30
2019-05-15T06:02:52.351Z,1.40
2019-05-15T06:05:18.856Z,1.40
2019-05-15T06:07:43.654Z,1.30
2019-05-15T06:10:09.820Z,1.10
2019-05-15T06:12:35.193Z,1.30
2019-05-15T06:15:00.534Z,1.20
2019-05-15T06:17:27.966Z,1.40
2019-05-15T06:19:52.890Z,1.17
2019-05-15T06:22:18.779Z,1.27
2019-05-15T06:24:44.327Z,1.80
2019-05-15T06:27:09.662Z,1.50
2019-05-15T06:29:35.049Z,1.20
2019-05-15T06:32:00.382Z,1.60
2019-05-15T06:34:25.749Z,1.63
2019-05-15T06:36:51.094Z,1.30
2019-05-15T06:39:17.881Z,1.20
2019-05-15T06:41:43.411Z,1.10
2019-05-15T06:44:09.742Z,1.10
2019-05-15T06:46:35.118Z,1.30
2019-05-15T06:49:00.479Z,1.20
2019-05-15T06:51:25.838Z,1.10
2019-05-15T06:53:51.178Z,1.40
2019-05-15T06:56:18.772Z,1.20
2019-05-15T06:58:43.625Z,1.10
2019-05-15T07:01:09.099Z,1.10
2019-05-15T07:03:34.449Z,1.40
2019-05-15T07:06:00.530Z,1.10
2019-05-15T07:08:25.888Z,1.20
2019-05-15T07:10:51.232Z,1.20
2019-05-15T07:13:18.242Z,1.10
2019-05-15T07:15:44.538Z,1.00
2019-05-15T07:18:09.919Z,1.00
2019-05-15T07:20:35.264Z,0.97
2019-05-15T07:23:00.707Z,1.10
2019-05-15T07:25:26.162Z,1.10
2019-05-15T07:27:51.543Z,1.00
2019-05-15T07:30:18.770Z,1.00
2019-05-15T07:32:45.127Z,1.07
2019-05-15T07:35:10.999Z,1.20
2019-05-15T07:37:38.708Z,1.10
2019-05-15T07:40:04.053Z,0.90
2019-05-15T07:42:29.415Z,0.83
2019-05-15T07:44:54.796Z,1.30
2019-05-15T07:47:20.222Z,1.00
2019-05-15T07:49:49.034Z,1.20
2019-05-15T07:52:12.579Z,1.03
2019-05-15T07:54:38.420Z,0.90
2019-05-15T07:57:03.821Z,0.73
2019-05-15T07:59:29.238Z,0.70
2019-05-15T08:01:54.637Z,0.83
2019-05-15T08:04:28.884Z,0.90
2019-05-15T08:06:49.069Z,0.80
2019-05-15T08:09:14.302Z,0.70
2019-05-15T08:11:39.694Z,0.90
2019-05-15T08:14:05.137Z,0.70
2019-05-15T08:16:30.488Z,0.63
2019-05-15T08:18:57.731Z,0.73
2019-05-15T08:21:22.862Z,0.70
2019-05-15T08:23:48.672Z,0.80
2019-05-15T08:26:14.021Z,0.70
2019-05-15T08:28:39.423Z,0.83
2019-05-15T08:31:06.637Z,0.70
2019-05-15T08:33:31.786Z,0.70
2019-05-15T08:35:58.855Z,0.70
2019-05-15T08:38:24.355Z,0.63
2019-05-15T08:40:49.775Z,0.90
2019-05-15T08:43:15.139Z,0.70
2019-05-15T08:45:40.548Z,0.70
2019-05-15T08:48:05.938Z,0.87
2019-05-15T08:50:31.910Z,0.80
2019-05-15T08:52:57.970Z,0.60
2019-05-15T08:55:23.307Z,0.60
2019-05-15T08:57:55.530Z,0.70
2019-05-15T09:00:18.507Z,0.70
2019-05-15T09:02:43.540Z,0.80
2019-05-15T09:05:09.650Z,0.80
2019-05-15T09:07:35.023Z,0.70
2019-05-15T09:10:00.403Z,0.80
2019-05-15T09:12:25.825Z,0.90
2019-05-15T09:14:51.315Z,0.80
2019-05-15T09:17:18.128Z,0.77
2019-05-15T09:19:44.456Z,0.93
2019-05-15T09:22:09.850Z,0.80
2019-05-15T09:24:37.891Z,0.97
2019-05-15T09:27:04.315Z,0.60
2019-05-15T09:29:31.035Z,0.80
2019-05-15T09:31:58.676Z,0.80
2019-05-15T09:34:23.851Z,0.80
2019-05-15T09:36:49.262Z,1.30
2019-05-15T09:39:14.791Z,1.00
2019-05-15T09:41:41.231Z,0.70
2019-05-15T09:44:07.981Z,0.70
2019-05-15T09:46:33.488Z,1.00
2019-05-15T09:48:59.772Z,0.93
2019-05-15T09:51:29.044Z,0.80
2019-05-15T09:53:54.286Z,0.70
2019-05-15T09:56:19.650Z,0.63
2019-05-15T09:58:45.070Z,0.90
2019-05-15T10:01:10.433Z,0.90
2019-05-15T10:03:38.821Z,0.80
2019-05-15T10:06:03.002Z,0.90
2019-05-15T10:08:29.211Z,0.90
2019-05-15T10:10:54.758Z,1.00
2019-05-15T10:13:21.102Z,0.77
2019-05-15T10:15:50.192Z,0.93
2019-05-15T10:18:13.482Z,0.80
2019-05-15T10:20:38.879Z,0.80
2019-05-15T10:23:04.257Z,0.70
2019-05-15T10:25:29.617Z,1.17
2019-05-15T10:27:54.999Z,0.83
2019-05-15T10:30:22.146Z,0.70
2019-05-15T10:32:48.681Z,0.80
2019-05-15T10:35:25.515Z,0.90
2019-05-15T10:37:41.292Z,1.00
2019-05-15T10:40:09.120Z,0.80
2019-05-15T10:42:34.563Z,0.80
2019-05-15T10:45:00.511Z,0.90
2019-05-15T10:47:28.721Z,0.90
2019-05-15T10:49:54.295Z,0.70
2019-05-15T10:52:20.644Z,0.80
2019-05-15T10:54:46.022Z,0.77
2019-05-15T10:57:11.608Z,0.60
2019-05-15T10:59:37.085Z,0.70
2019-05-15T11:02:02.469Z,1.43
2019-05-15T11:04:28.811Z,1.00
2019-05-15T11:06:54.583Z,0.90
2019-05-15T11:09:20.982Z,0.80
2019-05-15T11:11:48.687Z,0.70
2019-05-15T11:14:13.347Z,0.80
2019-05-15T11:16:39.227Z,0.80
2019-05-15T11:19:04.616Z,0.73
2019-05-15T11:21:29.996Z,0.90
2019-05-15T11:23:58.847Z,0.70
2019-05-15T11:26:22.588Z,0.90
2019-05-15T11:28:49.779Z,0.70
2019-05-15T11:31:14.993Z,0.70
2019-05-15T11:33:40.568Z,0.80
2019-05-15T11:36:06.412Z,0.80
2019-05-15T11:38:31.912Z,0.97
2019-05-15T11:40:57.275Z,0.80
2019-05-15T11:43:22.690Z,0.70
2019-05-15T11:45:48.457Z,0.70
2019-05-15T11:48:14.133Z,0.70
2019-05-15T11:50:40.151Z,0.80
2019-05-15T11:53:08.502Z,1.00
2019-05-15T11:55:32.634Z,0.90
2019-05-15T11:57:59.417Z,0.90
2019-05-15T12:00:26.996Z,0.87
2019-05-15T12:02:52.002Z,0.70
2019-05-15T12:05:18.255Z,0.70
2019-05-15T12:07:47.672Z,0.90
2019-05-15T12:10:11.642Z,0.80
2019-05-15T12:12:38.568Z,0.80
2019-05-15T12:15:05.891Z,0.90
2019-05-15T12:17:34.083Z,0.80
2019-05-15T12:20:05.370Z,0.83
2019-05-15T12:22:25.243Z,0.90
2019-05-15T12:24:50.599Z,0.73
2019-05-15T12:27:18.286Z,0.70
2019-05-15T12:29:44.006Z,1.07
2019-05-15T12:32:25.177Z,0.90
2019-05-15T12:34:38.823Z,0.80
2019-05-15T12:37:04.252Z,0.60
2019-05-15T12:39:30.617Z,0.70
2019-05-15T13:01:33.762Z,0.77
2019-05-15T13:03:59.113Z,0.80
2019-05-15T13:06:24.787Z,0.70
2019-05-15T13:08:50.133Z,0.90
2019-05-15T13:11:17.848Z,0.77
2019-05-15T13:13:42.846Z,0.70
2019-05-15T13:16:08.270Z,0.80
2019-05-15T13:18:34.001Z,1.13
2019-05-15T13:20:59.759Z,1.10
2019-05-15T13:23:25.520Z,1.03
2019-05-15T13:25:50.854Z,0.70
2019-05-15T13:28:18.374Z,1.10
2019-05-15T13:30:43.239Z,1.07
2019-05-15T13:33:10.103Z,1.00
2019-05-15T13:35:37.918Z,1.00
2019-05-15T13:38:02.666Z,0.77
2019-05-15T13:40:37.521Z,0.90
2019-05-15T13:42:55.070Z,0.73
2019-05-15T13:45:21.178Z,0.83
2019-05-15T13:47:46.530Z,0.90
2019-05-15T13:50:12.078Z,1.00
2019-05-15T13:52:39.374Z,0.90
2019-05-15T13:55:04.739Z,1.40
2019-05-15T13:57:30.107Z,1.00
2019-05-15T13:59:55.443Z,1.60
2019-05-15T14:02:20.811Z,1.50
2019-05-15T14:04:48.898Z,1.17
2019-05-15T14:07:13.151Z,1.00
2019-05-15T14:09:44.307Z,1.30
2019-05-15T14:12:11.683Z,1.10
2019-05-15T14:14:33.274Z,0.87
2019-05-15T14:16:59.228Z,0.97
2019-05-15T14:19:24.710Z,1.00
2019-05-15T14:21:50.055Z,1.20
2019-05-15T14:24:15.449Z,0.90
2019-05-15T14:26:40.802Z,0.97
2019-05-15T14:29:08.952Z,1.10
2019-05-15T14:31:36.415Z,1.07
2019-05-15T14:34:01.105Z,1.13
2019-05-15T14:36:28.676Z,1.20
2019-05-15T14:38:53.505Z,1.10
2019-05-15T14:41:19.232Z,0.93
2019-05-15T14:43:44.899Z,1.13
2019-05-15T14:46:10.250Z,1.20
2019-05-15T14:48:35.634Z,1.00
2019-05-15T14:51:00.986Z,1.07
2019-05-15T14:53:29.191Z,1.00
2019-05-15T14:55:53.319Z,1.00
2019-05-15T14:58:19.755Z,0.90
2019-05-15T15:00:49.700Z,1.30
2019-05-15T15:03:12.803Z,1.10
2019-05-15T15:05:38.765Z,0.90
2019-05-15T15:08:17.336Z,0.87
2019-05-15T15:10:31.712Z,1.00
2019-05-15T15:12:58.617Z,1.33
2019-05-15T15:15:24.114Z,1.00
2019-05-15T15:17:49.500Z,1.07
2019-05-15T15:20:15.138Z,1.10
2019-05-15T15:22:40.896Z,0.93
2019-05-15T15:25:09.204Z,1.00
2019-05-15T15:27:33.634Z,0.90
2019-05-15T15:29:58.996Z,1.30
2019-05-15T15:32:24.726Z,0.83
2019-05-15T15:34:50.144Z,1.17
2019-05-15T15:37:15.826Z,1.10
2019-05-15T15:39:41.486Z,1.20
2019-05-15T15:42:08.606Z,1.00
2019-05-15T15:44:34.131Z,0.90
2019-05-15T15:46:59.670Z,1.00
2019-05-15T15:49:27.885Z,1.27
2019-05-15T15:51:54.562Z,1.40
2019-05-15T15:54:20.191Z,1.33
2019-05-15T15:56:48.336Z,1.07
2019-05-15T15:59:12.558Z,1.13
2019-05-15T16:01:39.127Z,1.13
2019-05-15T16:04:04.841Z,1.10
2019-05-15T16:06:30.321Z,1.10
2019-05-15T16:08:55.970Z,1.17
2019-05-15T16:11:22.537Z,1.10
2019-05-15T16:13:49.674Z,0.90
2019-05-15T16:16:14.873Z,1.00
2019-05-15T16:18:41.213Z,1.07
2019-05-15T16:21:08.168Z,1.23
2019-05-15T16:23:33.920Z,1.13
2019-05-15T16:26:00.965Z,1.10
2019-05-15T16:28:28.805Z,1.13
2019-05-15T16:30:53.554Z,1.40
2019-05-15T16:33:18.969Z,1.43
2019-05-15T16:35:44.330Z,1.20
2019-05-15T16:38:09.858Z,1.00
2019-05-15T16:40:35.232Z,1.50
2019-05-15T16:43:00.578Z,1.00
2019-05-15T16:45:28.678Z,0.90
2019-05-15T16:47:53.236Z,1.20
2019-05-15T16:50:18.619Z,1.00
2019-05-15T16:52:43.965Z,1.10
2019-05-15T16:55:10.493Z,1.20
2019-05-15T16:57:38.371Z,1.20
2019-05-15T17:00:02.898Z,1.10
2019-05-15T17:02:31.710Z,1.20
2019-05-15T17:04:55.596Z,1.20
2019-05-15T17:07:21.070Z,1.30
2019-05-15T17:09:48.101Z,1.20
2019-05-15T17:12:13.563Z,1.30
2019-05-15T17:14:39.017Z,0.97
2019-05-15T17:17:07.821Z,1.10
2019-05-15T17:19:32.351Z,1.27
2019-05-15T17:21:58.767Z,1.53
2019-05-15T17:24:24.282Z,1.20
2019-05-15T17:26:49.690Z,1.00
2019-05-15T17:29:15.286Z,1.10
2019-05-15T17:31:40.738Z,1.27
2019-05-15T17:34:06.118Z,1.20
2019-05-15T17:36:32.089Z,1.17
2019-05-15T17:38:58.067Z,1.80
2019-05-15T17:41:23.505Z,1.10
2019-05-15T17:43:48.901Z,1.10
2019-05-15T17:46:14.265Z,1.00
2019-05-15T17:48:39.895Z,1.10
2019-05-15T17:51:05.258Z,1.30
2019-05-15T17:53:30.811Z,1.20
2019-05-15T17:55:58.451Z,1.20
2019-05-15T17:58:23.254Z,1.10
2019-05-15T18:00:48.763Z,0.87
2019-05-15T18:03:14.159Z,1.23
2019-05-15T18:05:39.523Z,1.30
2019-05-15T18:08:04.930Z,1.10
2019-05-15T18:10:30.278Z,1.10
2019-05-15T18:12:58.151Z,1.73
2019-05-15T18:15:22.957Z,1.67
2019-05-15T18:17:48.703Z,1.60
2019-05-15T18:20:15.298Z,1.70
2019-05-15T18:22:41.646Z,1.37
2019-05-15T18:25:09.055Z,1.73
2019-05-15T18:27:34.069Z,1.70
2019-05-15T18:29:59.555Z,1.57
2019-05-15T18:32:24.922Z,1.50
2019-05-15T18:34:50.290Z,1.50
2019-05-15T18:37:15.641Z,1.70
2019-05-15T18:39:41.194Z,1.80
2019-05-15T18:42:06.658Z,1.57
2019-05-15T18:44:32.025Z,1.80
2019-05-15T18:46:58.837Z,1.40
2019-05-15T18:49:24.232Z,1.50
2019-05-15T18:51:49.617Z,1.37
2019-05-15T18:54:14.979Z,1.43
2019-05-15T18:56:40.602Z,1.30
2019-05-15T18:59:08.092Z,1.43
2019-05-15T19:01:33.231Z,1.50
2019-05-15T19:03:58.696Z,1.67
2019-05-15T19:06:24.167Z,1.40
2019-05-15T19:08:49.545Z,1.00
2019-05-15T19:11:14.929Z,1.50
2019-05-15T19:13:40.261Z,1.40
2019-05-15T19:16:05.650Z,1.87
2019-05-15T19:18:30.986Z,1.40
2019-05-15T19:20:58.407Z,1.13
2019-05-15T19:23:23.321Z,1.40
2019-05-15T19:25:48.679Z,1.10
2019-05-15T19:28:14.037Z,1.20
2019-05-15T19:30:39.582Z,1.27
2019-05-15T19:33:04.951Z,1.20
2019-05-15T19:35:30.287Z,1.27
2019-05-15T19:37:58.233Z,1.30
2019-05-15T19:40:22.711Z,1.40
2019-05-15T19:42:48.831Z,1.20
2019-05-15T19:45:14.538Z,1.10
2019-05-15T19:47:39.881Z,1.10
2019-05-15T19:50:08.243Z,1.00
2019-05-15T19:52:32.905Z,1.30
2019-05-15T19:54:58.383Z,1.20
2019-05-15T19:57:23.721Z,1.13
2019-05-15T19:59:49.098Z,1.23
2019-05-15T20:02:17.618Z,1.60
2019-05-15T20:04:42.493Z,1.83
2019-05-15T20:07:08.093Z,1.73
2019-05-15T20:09:33.574Z,1.50
2019-05-15T20:11:59.206Z,1.90
2019-05-15T20:14:24.618Z,1.53
2019-05-15T20:16:50.062Z,1.37
2019-05-15T20:19:17.760Z,1.40
2019-05-15T20:21:42.657Z,1.40
2019-05-15T20:24:09.068Z,1.30
2019-05-15T20:26:34.514Z,1.30
2019-05-15T20:28:59.926Z,1.10
2019-05-15T20:31:28.263Z,1.30
2019-05-15T20:34:03.269Z,1.30
2019-05-15T20:36:19.711Z,1.43
2019-05-15T20:38:45.146Z,1.20
2019-05-15T20:41:10.634Z,1.13
2019-05-15T20:43:38.304Z,1.00
2019-05-15T20:46:03.312Z,1.10
2019-05-15T20:48:29.071Z,1.33
2019-05-15T20:50:54.464Z,1.30
2019-05-15T20:53:19.898Z,1.17
2019-05-15T20:55:45.367Z,1.37
2019-05-15T20:58:10.841Z,1.13
2019-05-15T21:00:40.732Z,1.30
2019-05-15T21:03:03.230Z,1.20
2019-05-15T21:05:28.644Z,1.27
2019-05-15T21:07:54.280Z,1.33
2019-05-15T21:10:21.532Z,1.20
2019-05-15T21:12:48.563Z,1.30
2019-05-15T21:15:14.849Z,1.23
2019-05-15T21:17:41.906Z,1.10
2019-05-15T21:20:09.445Z,1.20
2019-05-15T21:22:34.291Z,1.00
2019-05-15T21:24:59.946Z,1.10
2019-05-15T21:27:32.008Z,0.90
2019-05-15T21:29:53.498Z,1.10
2019-05-15T21:32:19.636Z,1.00
2019-05-15T21:34:45.374Z,1.40
2019-05-15T21:37:10.798Z,1.07
2019-05-15T21:39:36.166Z,1.20
2019-05-15T21:42:01.861Z,1.20
2019-05-15T21:44:29.230Z,1.10
2019-05-15T21:46:54.625Z,1.40
2019-05-15T21:49:19.966Z,1.13
2019-05-15T21:51:47.528Z,1.07
2019-05-15T21:54:12.410Z,1.10
2019-05-15T21:56:38.585Z,1.17
2019-05-15T21:59:04.420Z,1.23
2019-05-15T22:01:29.755Z,0.93
2019-05-15T22:03:55.205Z,1.10
2019-05-15T22:06:20.547Z,1.20
2019-05-15T22:08:45.986Z,1.53
2019-05-15T22:11:11.343Z,1.00
2019-05-15T22:13:39.047Z,1.13
2019-05-15T22:16:03.693Z,1.00
2019-05-15T22:18:29.051Z,1.10
2019-05-15T22:20:54.430Z,1.20
2019-05-15T22:23:19.986Z,1.00
2019-05-15T22:25:48.023Z,1.27
2019-05-15T22:28:12.318Z,1.33
2019-05-15T22:30:38.950Z,0.90
2019-05-15T22:33:04.536Z,0.97
2019-05-15T22:35:30.023Z,1.00
2019-05-15T22:37:55.374Z,1.10
2019-05-15T22:40:20.735Z,0.93
2019-05-15T22:42:48.346Z,0.90
2019-05-15T22:45:13.595Z,1.00
2019-05-15T22:47:39.274Z,1.30
2019-05-15T22:50:04.978Z,1.50
2019-05-15T22:52:30.344Z,1.20
2019-05-15T22:54:55.705Z,1.23
2019-05-15T22:57:21.098Z,0.97
2019-05-15T22:59:48.647Z,1.00
2019-05-15T23:02:13.431Z,1.00
2019-05-15T23:04:38.778Z,1.80
2019-05-15T23:07:04.125Z,1.17
2019-05-15T23:09:29.503Z,0.97
2019-05-15T23:11:54.844Z,1.00
2019-05-15T23:14:20.433Z,1.37
2019-05-15T23:16:48.147Z,1.17
2019-05-15T23:19:12.758Z,1.00
2019-05-15T23:21:40.276Z,1.00
2019-05-15T23:24:05.104Z,1.30
2019-05-15T23:26:30.462Z,1.30
2019-05-15T23:28:55.817Z,1.43
2019-05-15T23:31:21.184Z,1.50
2019-05-15T23:33:48.139Z,1.60
2019-05-15T23:36:13.690Z,1.63
2019-05-15T23:38:39.030Z,1.50
2019-05-15T23:41:04.422Z,1.40
2019-05-15T23:43:29.791Z,1.40
2019-05-15T23:45:55.230Z,1.20
2019-05-15T23:48:20.570Z,1.33
2019-05-15T23:50:48.483Z,1.40
2019-05-15T23:53:12.982Z,1.40
2019-05-15T23:55:38.354Z,1.50
2019-05-15T23:58:03.709Z,1.30
